createdAt,value
2018-06-29T00:01:26.151Z,90.90
2018-06-29T00:04:00.731Z,90.90
2018-06-29T00:06:35.469Z,90.90
2018-06-29T00:09:10.577Z,90.90
2018-06-29T00:11:44.755Z,91.00
2018-06-29T00:14:19.560Z,91.00
2018-06-29T00:16:54.791Z,91.00
2018-06-29T00:19:29.121Z,91.00
2018-06-29T00:22:03.748Z,91.00
2018-06-29T00:24:38.338Z,91.00
2018-06-29T00:27:13.083Z,91.00
2018-06-29T00:29:47.433Z,91.00
2018-06-29T00:32:22.184Z,91.00
2018-06-29T00:34:56.951Z,91.20
2018-06-29T00:37:31.681Z,91.00
2018-06-29T00:40:06.177Z,91.00
2018-06-29T00:42:40.946Z,91.00
2018-06-29T00:47:50.411Z,91.00
2018-06-29T00:50:24.891Z,91.00
2018-06-29T00:52:59.750Z,91.00
2018-06-29T00:55:34.566Z,91.00
2018-06-29T00:58:09.268Z,91.00
2018-06-29T01:00:44.202Z,91.10
2018-06-29T01:03:18.598Z,91.00
2018-06-29T01:05:53.338Z,91.10
2018-06-29T01:08:27.862Z,91.10
2018-06-29T01:11:02.629Z,91.10
2018-06-29T01:13:37.942Z,91.30
2018-06-29T01:16:12.893Z,91.10
2018-06-29T01:18:47.766Z,91.10
2018-06-29T01:21:22.515Z,91.10
2018-06-29T01:23:57.320Z,91.10
2018-06-29T01:26:32.310Z,91.10
2018-06-29T01:29:06.852Z,91.10
2018-06-29T01:31:41.593Z,91.10
2018-06-29T01:34:16.450Z,91.20
2018-06-29T01:36:50.660Z,91.10
2018-06-29T01:39:25.451Z,91.10
2018-06-29T01:41:59.954Z,91.30
2018-06-29T01:44:34.937Z,91.10
2018-06-29T01:47:09.462Z,91.20
2018-06-29T01:49:43.996Z,91.10
2018-06-29T01:52:18.998Z,91.10
2018-06-29T01:57:27.879Z,91.20
2018-06-29T02:00:02.964Z,91.20
2018-06-29T02:02:37.249Z,91.20
2018-06-29T02:05:12.168Z,91.20
2018-06-29T02:07:46.986Z,91.20
2018-06-29T02:10:21.684Z,91.20
2018-06-29T02:12:56.410Z,91.20
2018-06-29T02:15:31.274Z,91.20
2018-06-29T02:18:05.866Z,91.20
2018-06-29T02:20:40.487Z,91.20
2018-06-29T02:23:15.357Z,91.20
2018-06-29T02:25:49.854Z,91.20
2018-06-29T02:28:25.284Z,91.20
2018-06-29T02:31:00.132Z,91.20
2018-06-29T02:33:34.994Z,91.20
2018-06-29T02:36:09.567Z,91.20
2018-06-29T02:38:44.462Z,91.20
2018-06-29T02:41:18.883Z,91.20
2018-06-29T02:43:54.210Z,91.20
2018-06-29T02:46:28.305Z,91.20
2018-06-29T02:49:03.281Z,91.10
2018-06-29T02:51:37.722Z,91.20
2018-06-29T02:54:12.638Z,91.10
2018-06-29T02:56:47.194Z,91.10
2018-06-29T02:59:21.898Z,91.20
2018-06-29T03:01:56.566Z,91.10
2018-06-29T03:04:31.138Z,91.10
2018-06-29T03:07:05.798Z,91.10
2018-06-29T03:09:40.313Z,91.10
2018-06-29T03:12:14.975Z,91.10
2018-06-29T03:14:49.734Z,91.10
2018-06-29T03:17:24.601Z,91.10
2018-06-29T03:19:58.941Z,91.10
2018-06-29T03:22:33.657Z,91.10
2018-06-29T03:25:09.072Z,91.10
2018-06-29T03:27:44.019Z,91.10
2018-06-29T03:30:18.626Z,91.10
2018-06-29T03:32:53.304Z,91.10
2018-06-29T03:35:28.075Z,91.10
2018-06-29T03:38:03.016Z,91.10
2018-06-29T03:40:37.565Z,91.40
2018-06-29T03:43:11.996Z,91.20
2018-06-29T03:45:46.567Z,91.20
2018-06-29T03:48:21.127Z,91.20
2018-06-29T03:50:55.773Z,91.20
2018-06-29T03:53:30.509Z,91.10
2018-06-29T03:56:05.533Z,91.10
2018-06-29T03:58:39.757Z,91.10
2018-06-29T04:01:14.581Z,91.00
2018-06-29T04:03:49.156Z,91.00
2018-06-29T04:06:23.950Z,90.90
2018-06-29T04:08:58.704Z,91.10
2018-06-29T04:11:33.560Z,91.10
2018-06-29T04:14:08.054Z,91.10
2018-06-29T04:16:42.738Z,91.10
2018-06-29T04:19:17.470Z,91.10
2018-06-29T04:21:52.333Z,91.10
2018-06-29T04:24:26.828Z,91.20
2018-06-29T04:27:01.574Z,91.20
2018-06-29T04:29:36.311Z,91.20
2018-06-29T04:32:11.072Z,91.20
2018-06-29T04:34:46.101Z,91.20
2018-06-29T04:37:20.760Z,91.20
2018-06-29T04:39:55.002Z,91.20
2018-06-29T04:42:29.728Z,91.20
2018-06-29T04:45:04.783Z,91.20
2018-06-29T04:47:39.845Z,91.20
2018-06-29T04:50:14.580Z,91.20
2018-06-29T04:52:49.065Z,91.20
2018-06-29T04:55:23.621Z,91.20
2018-06-29T04:57:58.554Z,91.20
2018-06-29T05:00:33.007Z,91.30
2018-06-29T05:03:07.839Z,91.30
2018-06-29T05:05:42.242Z,91.30
2018-06-29T05:08:17.058Z,91.30
2018-06-29T05:10:51.467Z,91.30
2018-06-29T05:13:26.050Z,91.30
2018-06-29T05:16:00.837Z,91.30
2018-06-29T05:18:35.549Z,91.20
2018-06-29T05:21:10.884Z,91.20
2018-06-29T05:23:45.915Z,91.10
2018-06-29T05:26:20.416Z,91.10
2018-06-29T05:28:55.035Z,91.10
2018-06-29T05:31:30.123Z,91.30
2018-06-29T05:34:04.564Z,91.10
2018-06-29T05:36:39.001Z,91.10
2018-06-29T05:39:13.722Z,91.10
2018-06-29T05:41:48.712Z,91.10
2018-06-29T05:44:23.292Z,91.10
2018-06-29T05:46:58.047Z,91.10
2018-06-29T05:49:33.615Z,91.10
2018-06-29T05:52:08.571Z,91.10
2018-06-29T05:54:43.425Z,91.10
2018-06-29T05:57:18.027Z,91.10
2018-06-29T05:59:52.679Z,91.20
2018-06-29T06:02:27.454Z,91.20
2018-06-29T06:05:02.353Z,91.10
2018-06-29T06:07:36.823Z,91.10
2018-06-29T06:10:11.770Z,91.10
2018-06-29T06:12:46.098Z,91.10
2018-06-29T06:15:21.083Z,91.10
2018-06-29T06:17:56.129Z,91.10
2018-06-29T06:20:31.186Z,91.40
2018-06-29T06:23:17.786Z,91.30
2018-06-29T06:25:52.881Z,91.00
2018-06-29T06:28:27.287Z,91.00
2018-06-29T06:31:01.928Z,91.00
2018-06-29T06:33:36.446Z,90.90
2018-06-29T06:36:11.008Z,91.00
2018-06-29T06:38:45.797Z,91.00
2018-06-29T06:41:20.320Z,90.90
2018-06-29T06:43:54.743Z,90.80
2018-06-29T06:46:29.984Z,90.90
2018-06-29T06:49:05.101Z,90.70
2018-06-29T06:51:39.723Z,90.60
2018-06-29T06:54:14.570Z,90.40
2018-06-29T06:56:49.198Z,90.40
2018-06-29T06:59:24.042Z,90.20
2018-06-29T07:01:58.784Z,90.20
2018-06-29T07:04:33.302Z,90.20
2018-06-29T07:07:08.428Z,90.20
2018-06-29T07:09:42.686Z,90.10
2018-06-29T07:12:17.425Z,90.00
2018-06-29T07:14:52.044Z,90.10
2018-06-29T07:17:26.971Z,89.90
2018-06-29T07:20:01.155Z,90.00
2018-06-29T07:22:35.869Z,90.00
2018-06-29T07:25:10.500Z,89.90
2018-06-29T07:27:45.454Z,89.90
2018-06-29T07:30:20.011Z,89.90
2018-06-29T07:32:54.777Z,89.90
2018-06-29T07:35:29.381Z,89.90
2018-06-29T07:38:04.340Z,90.00
2018-06-29T07:40:38.853Z,89.90
2018-06-29T07:43:14.409Z,89.90
2018-06-29T07:45:49.736Z,90.00
2018-06-29T07:48:25.010Z,90.00
2018-06-29T07:50:59.992Z,90.00
2018-06-29T07:53:34.605Z,90.00
2018-06-29T07:56:09.089Z,90.00
2018-06-29T07:58:43.749Z,90.10
2018-06-29T08:01:18.363Z,90.20
2018-06-29T08:03:53.186Z,90.20
2018-06-29T08:06:27.669Z,90.10
2018-06-29T08:09:02.662Z,90.10
2018-06-29T08:11:36.985Z,90.10
2018-06-29T08:14:12.024Z,90.10
2018-06-29T08:16:46.349Z,90.10
2018-06-29T08:19:20.953Z,90.10
2018-06-29T08:21:55.693Z,90.10
2018-06-29T08:24:31.471Z,90.10
2018-06-29T08:27:07.078Z,90.10
2018-06-29T08:29:42.089Z,90.10
2018-06-29T08:32:17.155Z,90.20
2018-06-29T08:34:51.666Z,90.20
2018-06-29T08:40:00.960Z,90.30
2018-06-29T08:42:35.946Z,90.30
2018-06-29T08:45:10.249Z,90.20
2018-06-29T08:47:45.407Z,90.30
2018-06-29T08:50:19.670Z,90.30
2018-06-29T08:52:54.585Z,90.20
2018-06-29T08:55:28.999Z,90.30
2018-06-29T08:58:04.041Z,90.30
2018-06-29T09:00:38.212Z,90.30
2018-06-29T09:03:13.183Z,90.30
2018-06-29T09:05:47.900Z,90.20
2018-06-29T09:08:22.219Z,90.20
2018-06-29T09:10:56.679Z,90.20
2018-06-29T09:13:31.402Z,90.20
2018-06-29T09:16:06.501Z,90.30
2018-06-29T09:18:40.811Z,90.30
2018-06-29T09:21:15.531Z,90.20
2018-06-29T09:23:50.094Z,89.70
2018-06-29T09:26:24.824Z,89.20
2018-06-29T09:28:59.475Z,88.50
2018-06-29T09:31:34.168Z,88.00
2018-06-29T09:34:08.791Z,87.80
2018-06-29T09:36:43.598Z,87.50
2018-06-29T09:39:18.218Z,87.40
2018-06-29T09:41:52.986Z,86.90
2018-06-29T09:44:27.738Z,86.80
2018-06-29T09:47:03.661Z,86.70
2018-06-29T09:49:38.359Z,87.00
2018-06-29T09:52:13.092Z,86.90
2018-06-29T09:54:47.792Z,86.90
2018-06-29T09:57:22.610Z,87.30
2018-06-29T09:59:57.823Z,87.70
2018-06-29T10:02:39.274Z,87.80
2018-06-29T10:05:08.334Z,87.50
2018-06-29T10:07:43.921Z,87.10
2018-06-29T10:10:18.567Z,87.20
2018-06-29T10:12:53.319Z,87.30
2018-06-29T10:15:27.920Z,87.10
2018-06-29T10:18:02.720Z,86.90
2018-06-29T10:20:37.114Z,86.80
2018-06-29T10:23:11.666Z,86.80
2018-06-29T10:25:46.212Z,87.10
2018-06-29T10:28:20.850Z,87.60
2018-06-29T10:30:55.453Z,86.90
2018-06-29T10:33:30.391Z,87.00
2018-06-29T10:36:05.312Z,87.20
2018-06-29T10:38:40.679Z,86.90
2018-06-29T10:41:15.480Z,86.50
2018-06-29T10:43:49.636Z,86.10
2018-06-29T10:46:24.515Z,86.20
2018-06-29T10:48:59.274Z,86.50
2018-06-29T10:51:33.827Z,87.40
2018-06-29T10:54:08.925Z,86.70
2018-06-29T10:56:44.101Z,86.80
2018-06-29T10:59:18.626Z,86.90
2018-06-29T11:01:53.184Z,87.10
2018-06-29T11:04:28.164Z,87.20
2018-06-29T11:07:02.425Z,87.30
2018-06-29T11:09:37.318Z,87.10
2018-06-29T11:12:12.180Z,86.90
2018-06-29T11:14:48.000Z,87.50
2018-06-29T11:17:23.045Z,87.40
2018-06-29T11:19:58.120Z,86.00
2018-06-29T11:22:33.508Z,84.40
2018-06-29T11:25:08.759Z,83.50
2018-06-29T11:27:43.307Z,82.80
2018-06-29T11:30:17.957Z,82.50
2018-06-29T11:32:53.040Z,82.20
2018-06-29T11:35:27.537Z,80.70
2018-06-29T11:38:02.516Z,79.00
2018-06-29T11:40:39.832Z,78.70
2018-06-29T11:43:14.358Z,79.70
2018-06-29T11:45:49.221Z,77.90
2018-06-29T11:48:23.715Z,77.00
2018-06-29T11:50:58.703Z,77.70
2018-06-29T11:53:33.480Z,77.60
2018-06-29T11:56:08.239Z,76.30
2018-06-29T11:58:42.618Z,75.40
2018-06-29T12:01:17.453Z,76.20
2018-06-29T12:03:59.206Z,75.40
2018-06-29T12:06:34.586Z,75.40
2018-06-29T12:09:10.715Z,76.40
2018-06-29T12:11:45.914Z,75.90
2018-06-29T12:14:20.518Z,77.20
2018-06-29T12:16:55.271Z,77.60
2018-06-29T12:19:30.039Z,77.80
2018-06-29T12:22:05.892Z,78.60
2018-06-29T12:24:40.723Z,78.20
2018-06-29T12:27:15.263Z,78.10
2018-06-29T12:29:49.842Z,78.20
2018-06-29T12:32:24.484Z,78.40
2018-06-29T12:34:59.487Z,79.50
2018-06-29T12:37:33.977Z,78.90
2018-06-29T12:40:09.006Z,78.50
2018-06-29T12:42:43.896Z,78.30
2018-06-29T12:45:18.005Z,79.30
2018-06-29T12:47:52.926Z,79.10
2018-06-29T12:50:28.350Z,79.20
2018-06-29T12:53:03.220Z,79.00
2018-06-29T12:55:37.990Z,80.10
2018-06-29T12:58:12.743Z,80.40
2018-06-29T13:00:47.354Z,81.30
2018-06-29T13:03:22.066Z,80.40
2018-06-29T13:05:57.710Z,80.90
2018-06-29T13:08:32.322Z,81.70
2018-06-29T13:11:07.623Z,81.80
2018-06-29T13:13:42.284Z,81.70
2018-06-29T13:16:17.808Z,81.70
2018-06-29T13:18:52.560Z,81.40
2018-06-29T13:21:27.574Z,81.20
2018-06-29T13:24:02.068Z,81.50
2018-06-29T13:26:37.005Z,81.00
2018-06-29T13:29:11.719Z,80.10
2018-06-29T13:31:47.004Z,80.60
2018-06-29T13:34:21.278Z,80.60
2018-06-29T13:36:56.021Z,79.70
2018-06-29T13:39:31.413Z,78.80
2018-06-29T13:42:06.920Z,75.50
2018-06-29T13:44:41.851Z,75.00
2018-06-29T13:47:16.717Z,75.00
2018-06-29T13:49:51.580Z,74.10
2018-06-29T13:52:25.904Z,73.90
2018-06-29T13:55:00.710Z,74.90
2018-06-29T13:57:35.194Z,74.90
2018-06-29T14:00:09.919Z,75.70
2018-06-29T14:02:44.347Z,77.10
2018-06-29T14:05:19.351Z,77.90
2018-06-29T14:07:54.001Z,76.10
2018-06-29T14:10:28.591Z,75.60
2018-06-29T14:13:03.055Z,74.70
2018-06-29T14:15:37.673Z,74.80
2018-06-29T14:18:12.176Z,76.20
2018-06-29T14:20:46.727Z,74.90
2018-06-29T14:23:22.130Z,74.10
2018-06-29T14:25:57.117Z,74.40
2018-06-29T14:28:31.365Z,75.00
2018-06-29T14:31:06.468Z,74.50
2018-06-29T14:33:41.503Z,74.30
2018-06-29T14:36:16.024Z,73.00
2018-06-29T14:38:50.565Z,73.00
2018-06-29T14:41:25.512Z,73.00
2018-06-29T14:44:00.321Z,72.50
2018-06-29T14:46:36.395Z,72.50
2018-06-29T14:49:10.890Z,71.80
2018-06-29T14:51:45.617Z,71.70
2018-06-29T14:54:20.952Z,71.40
2018-06-29T14:56:55.858Z,71.30
2018-06-29T14:59:30.393Z,70.60
2018-06-29T15:02:05.405Z,71.50
2018-06-29T15:04:39.925Z,71.20
2018-06-29T15:07:14.403Z,71.30
2018-06-29T15:09:49.246Z,70.70
2018-06-29T15:12:24.104Z,71.50
2018-06-29T15:14:58.804Z,71.00
2018-06-29T15:17:33.981Z,70.40
2018-06-29T15:20:09.214Z,70.50
2018-06-29T15:22:44.513Z,70.40
2018-06-29T15:25:19.536Z,70.90
2018-06-29T15:27:54.536Z,71.20
2018-06-29T15:30:29.665Z,71.80
2018-06-29T15:33:04.295Z,72.10
2018-06-29T15:35:38.806Z,72.00
2018-06-29T15:38:13.523Z,71.90
2018-06-29T15:40:48.270Z,71.80
2018-06-29T15:43:22.761Z,71.90
2018-06-29T15:45:57.985Z,72.30
2018-06-29T15:48:32.810Z,72.70
2018-06-29T15:51:07.908Z,72.10
2018-06-29T15:53:41.999Z,71.90
2018-06-29T15:56:17.029Z,72.40
2018-06-29T15:58:51.170Z,72.60
2018-06-29T16:01:26.608Z,72.50
2018-06-29T16:04:01.780Z,72.70
2018-06-29T16:06:36.155Z,72.80
2018-06-29T16:09:10.895Z,74.00
2018-06-29T16:11:45.485Z,73.20
2018-06-29T16:14:20.215Z,72.90
2018-06-29T16:16:55.187Z,73.00
2018-06-29T16:19:29.613Z,73.60
2018-06-29T16:22:04.914Z,74.50
2018-06-29T16:24:40.072Z,74.50
2018-06-29T16:27:14.451Z,74.40
2018-06-29T16:29:48.879Z,74.20
2018-06-29T16:34:58.387Z,74.40
2018-06-29T16:37:33.636Z,74.80
2018-06-29T16:40:07.900Z,75.40
2018-06-29T16:42:42.561Z,74.40
2018-06-29T16:45:17.167Z,74.40
2018-06-29T16:47:51.769Z,74.40
2018-06-29T16:50:26.445Z,74.40
2018-06-29T16:53:01.128Z,74.50
2018-06-29T16:55:35.853Z,74.70
2018-06-29T16:58:10.616Z,74.90
2018-06-29T17:00:44.969Z,74.50
2018-06-29T17:03:19.845Z,74.70
2018-06-29T17:05:54.306Z,75.00
2018-06-29T17:08:29.188Z,75.00
2018-06-29T17:11:03.896Z,75.70
2018-06-29T17:13:38.799Z,75.20
2018-06-29T17:16:13.355Z,74.80
2018-06-29T17:18:47.972Z,74.80
2018-06-29T17:21:22.427Z,74.40
2018-06-29T17:23:57.453Z,74.30
2018-06-29T17:26:32.237Z,74.20
2018-06-29T17:29:07.327Z,74.10
2018-06-29T17:31:41.723Z,74.40
2018-06-29T17:34:16.704Z,74.30
2018-06-29T17:36:51.145Z,74.10
2018-06-29T17:39:25.783Z,73.90
2018-06-29T17:42:00.300Z,74.00
2018-06-29T17:44:35.023Z,73.80
2018-06-29T17:47:09.674Z,73.80
2018-06-29T17:49:44.909Z,74.10
2018-06-29T17:52:20.005Z,74.30
2018-06-29T17:54:55.219Z,74.90
2018-06-29T17:57:29.843Z,74.80
2018-06-29T18:00:06.129Z,75.10
2018-06-29T18:02:40.930Z,75.70
2018-06-29T18:05:15.592Z,76.10
2018-06-29T18:07:49.944Z,76.40
2018-06-29T18:10:24.975Z,76.70
2018-06-29T18:12:59.608Z,77.30
2018-06-29T18:15:34.444Z,77.60
2018-06-29T18:18:08.764Z,77.50
2018-06-29T18:20:44.056Z,77.40
2018-06-29T18:23:18.871Z,78.40
2018-06-29T18:25:53.672Z,77.70
2018-06-29T18:28:27.937Z,77.60
2018-06-29T18:31:03.431Z,77.70
2018-06-29T18:33:38.263Z,77.70
2018-06-29T18:36:12.900Z,77.70
2018-06-29T18:38:47.599Z,77.10
2018-06-29T18:41:22.280Z,77.40
2018-06-29T18:43:56.976Z,77.10
2018-06-29T18:46:31.857Z,77.10
2018-06-29T18:49:06.692Z,77.50
2018-06-29T18:51:42.583Z,78.00
2018-06-29T18:54:17.221Z,78.40
2018-06-29T18:56:51.965Z,78.80
2018-06-29T18:59:26.302Z,78.90
2018-06-29T19:02:03.191Z,79.20
2018-06-29T19:04:37.888Z,79.40
2018-06-29T19:07:12.374Z,79.60
2018-06-29T19:09:47.013Z,79.60
2018-06-29T19:12:21.929Z,79.80
2018-06-29T19:14:56.411Z,80.10
2018-06-29T19:17:31.794Z,79.80
2018-06-29T19:20:06.777Z,79.90
2018-06-29T19:22:41.603Z,80.00
2018-06-29T19:25:16.014Z,80.40
2018-06-29T19:27:50.642Z,80.80
2018-06-29T19:30:25.290Z,80.60
2018-06-29T19:32:59.799Z,80.60
2018-06-29T19:35:34.462Z,80.70
2018-06-29T19:38:09.107Z,80.90
2018-06-29T19:40:43.626Z,80.90
2018-06-29T19:43:18.279Z,81.20
2018-06-29T19:45:52.896Z,81.30
2018-06-29T19:48:27.608Z,81.40
2018-06-29T19:51:02.675Z,81.70
2018-06-29T19:53:36.928Z,81.90
2018-06-29T19:56:11.734Z,82.00
2018-06-29T19:58:46.393Z,81.90
2018-06-29T20:01:20.754Z,82.10
2018-06-29T20:03:55.302Z,82.30
2018-06-29T20:06:30.072Z,82.70
2018-06-29T20:09:09.996Z,82.90
2018-06-29T20:11:45.389Z,83.10
2018-06-29T20:14:21.358Z,83.40
2018-06-29T20:16:56.917Z,83.60
2018-06-29T20:19:32.128Z,83.80
2018-06-29T20:22:06.811Z,83.90
2018-06-29T20:24:41.898Z,84.20
2018-06-29T20:27:16.836Z,84.40
2018-06-29T20:29:51.526Z,84.70
2018-06-29T20:32:26.230Z,85.30
2018-06-29T20:35:00.856Z,85.20
2018-06-29T20:37:35.427Z,85.20
2018-06-29T20:40:10.219Z,85.20
2018-06-29T20:42:45.177Z,85.10
2018-06-29T20:45:19.738Z,85.10
2018-06-29T20:47:54.811Z,85.40
2018-06-29T20:50:29.252Z,85.50
2018-06-29T20:53:04.461Z,85.10
2018-06-29T20:55:39.696Z,85.00
2018-06-29T20:58:14.432Z,85.00
2018-06-29T21:00:48.981Z,85.20
2018-06-29T21:03:23.766Z,85.60
2018-06-29T21:05:58.186Z,85.80
2018-06-29T21:08:33.057Z,86.10
2018-06-29T21:11:07.785Z,86.20
2018-06-29T21:13:42.296Z,86.10
2018-06-29T21:16:16.949Z,86.10
2018-06-29T21:18:51.704Z,86.80
2018-06-29T21:21:26.345Z,86.10
2018-06-29T21:24:01.021Z,86.20
2018-06-29T21:26:35.578Z,86.30
2018-06-29T21:29:10.628Z,86.50
2018-06-29T21:31:44.943Z,86.40
2018-06-29T21:34:19.862Z,86.30
2018-06-29T21:36:54.486Z,86.30
2018-06-29T21:39:29.167Z,86.50
2018-06-29T21:42:03.838Z,86.60
2018-06-29T21:44:38.604Z,86.60
2018-06-29T21:47:13.246Z,86.70
2018-06-29T21:49:48.410Z,86.70
2018-06-29T21:52:23.055Z,86.60
2018-06-29T21:54:57.549Z,86.50
2018-06-29T21:57:32.695Z,85.90
2018-06-29T22:00:10.173Z,85.30
2018-06-29T22:02:44.846Z,84.90
2018-06-29T22:05:19.631Z,84.70
2018-06-29T22:07:54.340Z,84.80
2018-06-29T22:10:29.087Z,85.10
2018-06-29T22:13:04.182Z,85.30
2018-06-29T22:15:38.665Z,85.30
2018-06-29T22:18:13.387Z,85.40
2018-06-29T22:20:48.246Z,85.60
2018-06-29T22:23:23.175Z,85.60
2018-06-29T22:25:58.101Z,85.60
2018-06-29T22:28:32.806Z,85.40
2018-06-29T22:31:07.286Z,85.30
2018-06-29T22:33:42.000Z,85.50
2018-06-29T22:36:16.839Z,85.70
2018-06-29T22:38:51.393Z,85.60
2018-06-29T22:41:26.085Z,85.60
2018-06-29T22:44:01.314Z,85.80
2018-06-29T22:46:35.668Z,85.90
2018-06-29T22:49:10.415Z,85.80
2018-06-29T22:51:45.268Z,85.90
2018-06-29T22:54:19.665Z,86.00
2018-06-29T22:56:54.557Z,86.10
2018-06-29T22:59:30.003Z,86.20
2018-06-29T23:02:05.075Z,86.40
2018-06-29T23:04:39.854Z,86.40
2018-06-29T23:07:14.305Z,86.40
2018-06-29T23:09:48.978Z,86.70
2018-06-29T23:12:23.698Z,86.80
2018-06-29T23:14:58.635Z,86.90
2018-06-29T23:17:33.377Z,87.00
2018-06-29T23:20:07.709Z,87.10
2018-06-29T23:22:42.403Z,87.10
2018-06-29T23:25:17.402Z,87.30
2018-06-29T23:27:51.876Z,87.40
2018-06-29T23:30:26.277Z,87.70
2018-06-29T23:33:00.954Z,87.60
2018-06-29T23:35:35.591Z,88.40
2018-06-29T23:38:10.459Z,87.80
2018-06-29T23:40:45.170Z,87.90
2018-06-29T23:43:19.841Z,88.00
2018-06-29T23:45:54.625Z,88.10
2018-06-29T23:48:29.207Z,88.20
2018-06-29T23:51:04.056Z,88.30
2018-06-29T23:53:38.793Z,88.40
2018-06-29T23:56:13.442Z,88.50
2018-06-29T23:58:48.092Z,88.70
